sensor_id;sensor_type;location;lat;lon;timestamp;P1;durP1;ratioP1;P2;durP2;ratioP2
34571;SDS011;20808;48.974;8.452;2022-12-22T00:00:26;3.13;;;2.45;;
34571;SDS011;20808;48.974;8.452;2022-12-22T00:01:00;2.75;;;2.40;;
34571;SDS011;20808;48.974;8.452;2022-12-22T00:01:35;4.10;;;2.63;;
34571;SDS011;20808;48.974;8.452;2022-12-22T00:02:13;5.30;;;2.70;;
34571;SDS011;20808;48.974;8.452;2022-12-22T00:02:50;4.00;;;2.42;;
34571;SDS011;20808;48.974;8.452;2022-12-22T00:03:24;4.15;;;2.60;;
34571;SDS011;20808;48.974;8.452;2022-12-22T00:03:58;3.90;;;2.60;;
34571;SDS011;20808;48.974;8.452;2022-12-22T00:04:33;3.63;;;2.40;;
34571;SDS011;20808;48.974;8.452;2022-12-22T00:05:16;5.55;;;3.38;;
34571;SDS011;20808;48.974;8.452;2022-12-22T00:05:52;5.65;;;3.20;;
34571;SDS011;20808;48.974;8.452;2022-12-22T00:06:27;5.18;;;2.78;;
34571;SDS011;20808;48.974;8.452;2022-12-22T00:07:01;4.63;;;2.40;;
34571;SDS011;20808;48.974;8.452;2022-12-22T00:07:36;4.10;;;2.38;;
34571;SDS011;20808;48.974;8.452;2022-12-22T00:08:10;2.60;;;2.00;;
34571;SDS011;20808;48.974;8.452;2022-12-22T00:08:44;3.35;;;1.90;;
34571;SDS011;20808;48.974;8.452;2022-12-22T00:09:20;3.13;;;1.95;;
34571;SDS011;20808;48.974;8.452;2022-12-22T00:09:54;2.97;;;1.80;;
34571;SDS011;20808;48.974;8.452;2022-12-22T00:10:28;3.45;;;1.90;;
34571;SDS011;20808;48.974;8.452;2022-12-22T00:11:05;4.45;;;1.73;;
34571;SDS011;20808;48.974;8.452;2022-12-22T00:11:42;2.88;;;1.40;;
34571;SDS011;20808;48.974;8.452;2022-12-22T00:12:18;2.72;;;1.40;;
34571;SDS011;20808;48.974;8.452;2022-12-22T00:12:53;3.17;;;1.60;;
34571;SDS011;20808;48.974;8.452;2022-12-22T00:13:27;2.75;;;1.60;;
34571;SDS011;20808;48.974;8.452;2022-12-22T00:14:02;3.38;;;1.50;;
34571;SDS011;20808;48.974;8.452;2022-12-22T00:14:37;3.30;;;1.50;;
34571;SDS011;20808;48.974;8.452;2022-12-22T00:15:12;2.88;;;1.60;;
34571;SDS011;20808;48.974;8.452;2022-12-22T00:15:48;4.85;;;1.73;;
34571;SDS011;20808;48.974;8.452;2022-12-22T00:16:23;3.42;;;1.60;;
34571;SDS011;20808;48.974;8.452;2022-12-22T00:17:06;3.22;;;1.80;;
34571;SDS011;20808;48.974;8.452;2022-12-22T00:17:49;5.93;;;2.22;;
34571;SDS011;20808;48.974;8.452;2022-12-22T00:18:24;5.72;;;2.30;;
34571;SDS011;20808;48.974;8.452;2022-12-22T00:19:00;3.83;;;2.40;;
34571;SDS011;20808;48.974;8.452;2022-12-22T00:19:34;5.88;;;3.20;;
34571;SDS011;20808;48.974;8.452;2022-12-22T00:20:12;7.68;;;3.40;;
34571;SDS011;20808;48.974;8.452;2022-12-22T00:20:47;5.97;;;3.03;;
34571;SDS011;20808;48.974;8.452;2022-12-22T00:21:22;7.10;;;3.20;;
34571;SDS011;20808;48.974;8.452;2022-12-22T00:21:56;6.35;;;3.00;;
34571;SDS011;20808;48.974;8.452;2022-12-22T00:22:33;3.42;;;1.98;;
34571;SDS011;20808;48.974;8.452;2022-12-22T00:23:07;2.72;;;1.70;;
34571;SDS011;20808;48.974;8.452;2022-12-22T00:23:42;3.80;;;2.20;;
34571;SDS011;20808;48.974;8.452;2022-12-22T00:24:17;3.03;;;2.03;;
34571;SDS011;20808;48.974;8.452;2022-12-22T00:24:52;2.40;;;1.60;;
34571;SDS011;20808;48.974;8.452;2022-12-22T00:25:27;3.85;;;1.80;;
34571;SDS011;20808;48.974;8.452;2022-12-22T00:26:01;5.05;;;1.90;;
34571;SDS011;20808;48.974;8.452;2022-12-22T00:26:35;4.80;;;2.10;;
34571;SDS011;20808;48.974;8.452;2022-12-22T00:27:11;6.70;;;2.20;;
34571;SDS011;20808;48.974;8.452;2022-12-22T00:27:50;4.47;;;2.00;;
34571;SDS011;20808;48.974;8.452;2022-12-22T00:28:25;3.03;;;1.90;;
34571;SDS011;20808;48.974;8.452;2022-12-22T00:28:59;3.38;;;2.00;;
34571;SDS011;20808;48.974;8.452;2022-12-22T00:29:35;5.20;;;2.10;;
34571;SDS011;20808;48.974;8.452;2022-12-22T00:30:12;4.00;;;2.20;;
34571;SDS011;20808;48.974;8.452;2022-12-22T00:30:46;4.63;;;1.90;;
34571;SDS011;20808;48.974;8.452;2022-12-22T00:31:21;4.22;;;2.00;;
34571;SDS011;20808;48.974;8.452;2022-12-22T00:31:55;2.60;;;1.92;;
34571;SDS011;20808;48.974;8.452;2022-12-22T00:32:31;2.50;;;1.70;;
34571;SDS011;20808;48.974;8.452;2022-12-22T00:33:08;2.60;;;1.55;;
34571;SDS011;20808;48.974;8.452;2022-12-22T00:33:48;3.38;;;1.80;;
34571;SDS011;20808;48.974;8.452;2022-12-22T00:34:22;3.35;;;1.75;;
34571;SDS011;20808;48.974;8.452;2022-12-22T00:34:57;4.00;;;1.75;;
34571;SDS011;20808;48.974;8.452;2022-12-22T00:35:32;4.20;;;2.00;;
34571;SDS011;20808;48.974;8.452;2022-12-22T00:36:06;4.07;;;2.00;;
34571;SDS011;20808;48.974;8.452;2022-12-22T00:36:44;3.33;;;1.90;;
34571;SDS011;20808;48.974;8.452;2022-12-22T00:37:19;3.13;;;1.77;;
34571;SDS011;20808;48.974;8.452;2022-12-22T00:37:53;3.58;;;1.83;;
34571;SDS011;20808;48.974;8.452;2022-12-22T00:38:27;5.18;;;1.80;;
34571;SDS011;20808;48.974;8.452;2022-12-22T00:39:02;4.90;;;1.80;;
34571;SDS011;20808;48.974;8.452;2022-12-22T00:39:42;4.80;;;2.40;;
34571;SDS011;20808;48.974;8.452;2022-12-22T00:40:18;5.93;;;2.38;;
34571;SDS011;20808;48.974;8.452;2022-12-22T00:40:54;6.20;;;2.50;;
34571;SDS011;20808;48.974;8.452;2022-12-22T00:41:28;5.13;;;2.30;;
34571;SDS011;20808;48.974;8.452;2022-12-22T00:42:03;4.72;;;2.47;;
34571;SDS011;20808;48.974;8.452;2022-12-22T00:42:37;3.40;;;2.20;;
34571;SDS011;20808;48.974;8.452;2022-12-22T00:43:11;3.70;;;2.30;;
34571;SDS011;20808;48.974;8.452;2022-12-22T00:43:45;4.68;;;2.30;;
34571;SDS011;20808;48.974;8.452;2022-12-22T00:44:20;6.22;;;2.60;;
34571;SDS011;20808;48.974;8.452;2022-12-22T00:44:54;5.90;;;2.70;;
34571;SDS011;20808;48.974;8.452;2022-12-22T00:45:29;6.53;;;2.47;;
34571;SDS011;20808;48.974;8.452;2022-12-22T00:46:03;6.80;;;2.70;;
34571;SDS011;20808;48.974;8.452;2022-12-22T00:46:38;6.97;;;2.83;;
34571;SDS011;20808;48.974;8.452;2022-12-22T00:47:13;6.28;;;2.50;;
34571;SDS011;20808;48.974;8.452;2022-12-22T00:47:55;4.70;;;2.45;;
34571;SDS011;20808;48.974;8.452;2022-12-22T00:48:30;6.18;;;2.20;;
34571;SDS011;20808;48.974;8.452;2022-12-22T00:49:04;7.38;;;2.00;;
34571;SDS011;20808;48.974;8.452;2022-12-22T00:49:39;7.13;;;2.10;;
34571;SDS011;20808;48.974;8.452;2022-12-22T00:50:17;7.00;;;2.00;;
34571;SDS011;20808;48.974;8.452;2022-12-22T00:50:51;6.97;;;2.20;;
34571;SDS011;20808;48.974;8.452;2022-12-22T00:51:26;4.95;;;2.13;;
34571;SDS011;20808;48.974;8.452;2022-12-22T00:52:00;5.18;;;1.90;;
34571;SDS011;20808;48.974;8.452;2022-12-22T00:52:35;3.65;;;1.90;;
34571;SDS011;20808;48.974;8.452;2022-12-22T00:53:09;3.60;;;1.90;;
34571;SDS011;20808;48.974;8.452;2022-12-22T00:53:44;5.43;;;1.90;;
34571;SDS011;20808;48.974;8.452;2022-12-22T00:54:18;3.50;;;2.20;;
34571;SDS011;20808;48.974;8.452;2022-12-22T00:54:55;4.30;;;2.20;;
34571;SDS011;20808;48.974;8.452;2022-12-22T00:55:31;4.22;;;2.17;;
34571;SDS011;20808;48.974;8.452;2022-12-22T00:56:06;3.20;;;1.88;;
34571;SDS011;20808;48.974;8.452;2022-12-22T00:56:41;3.78;;;1.70;;
34571;SDS011;20808;48.974;8.452;2022-12-22T00:57:16;4.95;;;1.80;;
34571;SDS011;20808;48.974;8.452;2022-12-22T00:57:52;4.05;;;2.00;;
34571;SDS011;20808;48.974;8.452;2022-12-22T00:58:27;3.03;;;1.80;;
34571;SDS011;20808;48.974;8.452;2022-12-22T00:59:01;2.40;;;1.60;;
34571;SDS011;20808;48.974;8.452;2022-12-22T00:59:36;2.75;;;1.98;;
34571;SDS011;20808;48.974;8.452;2022-12-22T01:00:13;5.10;;;2.10;;
34571;SDS011;20808;48.974;8.452;2022-12-22T01:00:49;5.10;;;2.00;;
34571;SDS011;20808;48.974;8.452;2022-12-22T01:01:23;2.67;;;1.60;;
34571;SDS011;20808;48.974;8.452;2022-12-22T01:01:57;3.75;;;1.70;;
34571;SDS011;20808;48.974;8.452;2022-12-22T01:02:32;3.65;;;1.80;;
34571;SDS011;20808;48.974;8.452;2022-12-22T01:03:06;4.03;;;1.88;;
34571;SDS011;20808;48.974;8.452;2022-12-22T01:03:42;4.30;;;1.90;;
34571;SDS011;20808;48.974;8.452;2022-12-22T01:04:17;4.80;;;1.98;;
34571;SDS011;20808;48.974;8.452;2022-12-22T01:04:51;4.13;;;1.70;;
34571;SDS011;20808;48.974;8.452;2022-12-22T01:05:26;3.17;;;1.50;;
34571;SDS011;20808;48.974;8.452;2022-12-22T01:06:01;4.18;;;1.60;;
34571;SDS011;20808;48.974;8.452;2022-12-22T01:06:35;3.50;;;1.60;;
34571;SDS011;20808;48.974;8.452;2022-12-22T01:07:10;3.10;;;1.70;;
34571;SDS011;20808;48.974;8.452;2022-12-22T01:07:46;2.38;;;1.50;;
34571;SDS011;20808;48.974;8.452;2022-12-22T01:08:21;3.30;;;1.30;;
34571;SDS011;20808;48.974;8.452;2022-12-22T01:08:55;3.50;;;1.30;;
34571;SDS011;20808;48.974;8.452;2022-12-22T01:09:30;3.75;;;1.60;;
34571;SDS011;20808;48.974;8.452;2022-12-22T01:10:05;3.70;;;1.60;;
34571;SDS011;20808;48.974;8.452;2022-12-22T01:10:45;2.15;;;1.38;;
34571;SDS011;20808;48.974;8.452;2022-12-22T01:11:20;3.10;;;1.45;;
34571;SDS011;20808;48.974;8.452;2022-12-22T01:11:54;2.92;;;1.40;;
34571;SDS011;20808;48.974;8.452;2022-12-22T01:12:28;3.15;;;1.40;;
34571;SDS011;20808;48.974;8.452;2022-12-22T01:13:04;2.80;;;1.30;;
34571;SDS011;20808;48.974;8.452;2022-12-22T01:13:42;3.20;;;1.30;;
34571;SDS011;20808;48.974;8.452;2022-12-22T01:14:16;2.70;;;1.60;;
34571;SDS011;20808;48.974;8.452;2022-12-22T01:14:50;2.20;;;1.58;;
34571;SDS011;20808;48.974;8.452;2022-12-22T01:15:25;2.22;;;1.38;;
34571;SDS011;20808;48.974;8.452;2022-12-22T01:16:00;4.10;;;1.50;;
34571;SDS011;20808;48.974;8.452;2022-12-22T01:16:35;3.25;;;1.40;;
34571;SDS011;20808;48.974;8.452;2022-12-22T01:17:09;2.20;;;1.30;;
34571;SDS011;20808;48.974;8.452;2022-12-22T01:17:43;4.32;;;1.50;;
34571;SDS011;20808;48.974;8.452;2022-12-22T01:18:18;3.70;;;1.50;;
34571;SDS011;20808;48.974;8.452;2022-12-22T01:18:52;3.03;;;1.45;;
34571;SDS011;20808;48.974;8.452;2022-12-22T01:19:26;3.80;;;1.60;;
34571;SDS011;20808;48.974;8.452;2022-12-22T01:20:01;3.35;;;1.45;;
34571;SDS011;20808;48.974;8.452;2022-12-22T01:20:35;4.30;;;1.40;;
34571;SDS011;20808;48.974;8.452;2022-12-22T01:21:09;3.67;;;1.33;;
34571;SDS011;20808;48.974;8.452;2022-12-22T01:21:43;3.22;;;1.40;;
34571;SDS011;20808;48.974;8.452;2022-12-22T01:22:18;4.22;;;1.60;;
34571;SDS011;20808;48.974;8.452;2022-12-22T01:22:53;2.13;;;1.33;;
34571;SDS011;20808;48.974;8.452;2022-12-22T01:23:28;1.50;;;1.10;;
34571;SDS011;20808;48.974;8.452;2022-12-22T01:24:06;1.60;;;1.10;;
34571;SDS011;20808;48.974;8.452;2022-12-22T01:24:43;2.00;;;1.30;;
34571;SDS011;20808;48.974;8.452;2022-12-22T01:25:18;2.10;;;1.25;;
34571;SDS011;20808;48.974;8.452;2022-12-22T01:25:54;1.63;;;1.30;;
34571;SDS011;20808;48.974;8.452;2022-12-22T01:26:28;1.40;;;1.27;;
34571;SDS011;20808;48.974;8.452;2022-12-22T01:27:03;4.30;;;1.30;;
34571;SDS011;20808;48.974;8.452;2022-12-22T01:27:37;4.00;;;1.33;;
34571;SDS011;20808;48.974;8.452;2022-12-22T01:28:11;3.35;;;1.20;;
34571;SDS011;20808;48.974;8.452;2022-12-22T01:28:47;3.00;;;1.20;;
34571;SDS011;20808;48.974;8.452;2022-12-22T01:29:21;1.92;;;1.33;;
34571;SDS011;20808;48.974;8.452;2022-12-22T01:29:55;2.90;;;1.40;;
34571;SDS011;20808;48.974;8.452;2022-12-22T01:30:30;3.28;;;1.40;;
34571;SDS011;20808;48.974;8.452;2022-12-22T01:31:09;3.85;;;1.45;;
34571;SDS011;20808;48.974;8.452;2022-12-22T01:31:49;3.10;;;1.30;;
34571;SDS011;20808;48.974;8.452;2022-12-22T01:32:23;2.50;;;1.30;;
34571;SDS011;20808;48.974;8.452;2022-12-22T01:32:58;2.65;;;1.25;;
34571;SDS011;20808;48.974;8.452;2022-12-22T01:33:32;2.28;;;1.50;;
34571;SDS011;20808;48.974;8.452;2022-12-22T01:34:07;2.53;;;1.60;;
34571;SDS011;20808;48.974;8.452;2022-12-22T01:34:41;2.70;;;1.40;;
34571;SDS011;20808;48.974;8.452;2022-12-22T01:35:16;2.83;;;1.30;;
34571;SDS011;20808;48.974;8.452;2022-12-22T01:35:52;2.20;;;1.20;;
34571;SDS011;20808;48.974;8.452;2022-12-22T01:36:26;1.75;;;1.20;;
34571;SDS011;20808;48.974;8.452;2022-12-22T01:37:01;2.80;;;1.30;;
34571;SDS011;20808;48.974;8.452;2022-12-22T01:37:35;5.18;;;1.60;;
34571;SDS011;20808;48.974;8.452;2022-12-22T01:38:10;3.97;;;1.50;;
34571;SDS011;20808;48.974;8.452;2022-12-22T01:38:44;2.60;;;1.30;;
34571;SDS011;20808;48.974;8.452;2022-12-22T01:39:18;3.53;;;1.30;;
34571;SDS011;20808;48.974;8.452;2022-12-22T01:39:53;3.00;;;1.33;;
34571;SDS011;20808;48.974;8.452;2022-12-22T01:40:27;2.58;;;1.35;;
34571;SDS011;20808;48.974;8.452;2022-12-22T01:41:03;2.80;;;1.30;;
34571;SDS011;20808;48.974;8.452;2022-12-22T01:41:38;3.40;;;1.40;;
34571;SDS011;20808;48.974;8.452;2022-12-22T01:42:12;3.45;;;1.40;;
34571;SDS011;20808;48.974;8.452;2022-12-22T01:42:46;3.60;;;1.30;;
34571;SDS011;20808;48.974;8.452;2022-12-22T01:43:23;5.00;;;1.45;;
34571;SDS011;20808;48.974;8.452;2022-12-22T01:43:59;5.82;;;1.50;;
34571;SDS011;20808;48.974;8.452;2022-12-22T01:44:34;3.65;;;1.40;;
34571;SDS011;20808;48.974;8.452;2022-12-22T01:45:13;2.80;;;1.40;;
34571;SDS011;20808;48.974;8.452;2022-12-22T01:45:53;4.75;;;1.40;;
34571;SDS011;20808;48.974;8.452;2022-12-22T01:46:28;3.50;;;1.23;;
34571;SDS011;20808;48.974;8.452;2022-12-22T01:48:08;3.05;;;1.30;;
34571;SDS011;20808;48.974;8.452;2022-12-22T01:48:44;2.38;;;1.45;;
34571;SDS011;20808;48.974;8.452;2022-12-22T01:49:19;1.80;;;1.40;;
34571;SDS011;20808;48.974;8.452;2022-12-22T01:49:56;2.60;;;1.30;;
34571;SDS011;20808;48.974;8.452;2022-12-22T01:50:32;3.40;;;1.20;;
34571;SDS011;20808;48.974;8.452;2022-12-22T01:51:08;3.30;;;1.40;;
34571;SDS011;20808;48.974;8.452;2022-12-22T01:51:45;2.17;;;1.20;;
34571;SDS011;20808;48.974;8.452;2022-12-22T01:52:19;2.53;;;1.35;;
34571;SDS011;20808;48.974;8.452;2022-12-22T01:52:57;3.15;;;1.30;;
34571;SDS011;20808;48.974;8.452;2022-12-22T01:53:32;2.50;;;1.20;;
34571;SDS011;20808;48.974;8.452;2022-12-22T01:54:07;2.28;;;1.40;;
34571;SDS011;20808;48.974;8.452;2022-12-22T01:54:42;2.45;;;1.40;;
34571;SDS011;20808;48.974;8.452;2022-12-22T01:55:19;3.70;;;1.40;;
34571;SDS011;20808;48.974;8.452;2022-12-22T01:55:56;3.65;;;1.30;;
34571;SDS011;20808;48.974;8.452;2022-12-22T01:56:33;3.60;;;1.20;;
34571;SDS011;20808;48.974;8.452;2022-12-22T01:57:07;2.22;;;1.30;;
34571;SDS011;20808;48.974;8.452;2022-12-22T01:57:42;1.98;;;1.23;;
34571;SDS011;20808;48.974;8.452;2022-12-22T01:58:23;3.30;;;1.30;;
34571;SDS011;20808;48.974;8.452;2022-12-22T01:59:03;3.15;;;1.30;;
34571;SDS011;20808;48.974;8.452;2022-12-22T01:59:37;3.03;;;1.40;;
34571;SDS011;20808;48.974;8.452;2022-12-22T02:00:11;3.33;;;1.33;;
34571;SDS011;20808;48.974;8.452;2022-12-22T02:00:46;3.38;;;1.30;;
34571;SDS011;20808;48.974;8.452;2022-12-22T02:01:21;3.40;;;1.10;;
34571;SDS011;20808;48.974;8.452;2022-12-22T02:02:03;2.70;;;1.27;;
34571;SDS011;20808;48.974;8.452;2022-12-22T02:02:39;1.60;;;1.20;;
34571;SDS011;20808;48.974;8.452;2022-12-22T02:03:14;2.83;;;1.30;;
34571;SDS011;20808;48.974;8.452;2022-12-22T02:03:48;2.45;;;1.20;;
34571;SDS011;20808;48.974;8.452;2022-12-22T02:04:23;2.42;;;1.27;;
34571;SDS011;20808;48.974;8.452;2022-12-22T02:05:00;2.38;;;1.20;;
34571;SDS011;20808;48.974;8.452;2022-12-22T02:05:38;1.92;;;1.20;;
34571;SDS011;20808;48.974;8.452;2022-12-22T02:06:27;2.35;;;1.30;;
34571;SDS011;20808;48.974;8.452;2022-12-22T02:07:08;3.38;;;1.30;;
34571;SDS011;20808;48.974;8.452;2022-12-22T02:07:56;2.08;;;1.20;;
34571;SDS011;20808;48.974;8.452;2022-12-22T02:08:36;1.90;;;1.27;;
34571;SDS011;20808;48.974;8.452;2022-12-22T02:09:33;3.90;;;1.10;;
34571;SDS011;20808;48.974;8.452;2022-12-22T02:10:21;2.10;;;1.10;;
34571;SDS011;20808;48.974;8.452;2022-12-22T02:11:09;2.20;;;1.23;;
34571;SDS011;20808;48.974;8.452;2022-12-22T02:11:58;3.42;;;1.20;;
34571;SDS011;20808;48.974;8.452;2022-12-22T02:12:40;4.30;;;1.30;;
34571;SDS011;20808;48.974;8.452;2022-12-22T02:13:29;3.20;;;1.20;;
34571;SDS011;20808;48.974;8.452;2022-12-22T02:14:12;2.45;;;1.00;;
34571;SDS011;20808;48.974;8.452;2022-12-22T02:14:54;2.70;;;1.10;;
34571;SDS011;20808;48.974;8.452;2022-12-22T02:15:35;3.20;;;1.13;;
34571;SDS011;20808;48.974;8.452;2022-12-22T02:16:16;2.50;;;1.20;;
34571;SDS011;20808;48.974;8.452;2022-12-22T02:16:55;1.40;;;1.05;;
34571;SDS011;20808;48.974;8.452;2022-12-22T02:17:36;1.70;;;1.07;;
34571;SDS011;20808;48.974;8.452;2022-12-22T02:18:22;2.25;;;1.30;;
34571;SDS011;20808;48.974;8.452;2022-12-22T02:19:01;1.50;;;1.20;;
34571;SDS011;20808;48.974;8.452;2022-12-22T02:19:50;3.00;;;1.20;;
34571;SDS011;20808;48.974;8.452;2022-12-22T02:20:51;1.60;;;1.20;;
34571;SDS011;20808;48.974;8.452;2022-12-22T02:21:31;1.20;;;1.10;;
34571;SDS011;20808;48.974;8.452;2022-12-22T02:22:14;3.75;;;1.30;;
34571;SDS011;20808;48.974;8.452;2022-12-22T02:23:00;3.38;;;1.20;;
34571;SDS011;20808;48.974;8.452;2022-12-22T02:23:50;2.53;;;1.20;;
34571;SDS011;20808;48.974;8.452;2022-12-22T02:24:36;1.90;;;1.17;;
34571;SDS011;20808;48.974;8.452;2022-12-22T02:25:15;2.28;;;1.20;;
34571;SDS011;20808;48.974;8.452;2022-12-22T02:25:54;3.13;;;1.30;;
34571;SDS011;20808;48.974;8.452;2022-12-22T02:26:35;2.60;;;1.20;;
34571;SDS011;20808;48.974;8.452;2022-12-22T02:27:11;1.83;;;1.02;;
34571;SDS011;20808;48.974;8.452;2022-12-22T02:27:45;1.27;;;1.00;;
34571;SDS011;20808;48.974;8.452;2022-12-22T02:28:22;1.67;;;1.30;;
34571;SDS011;20808;48.974;8.452;2022-12-22T02:28:56;2.35;;;1.38;;
34571;SDS011;20808;48.974;8.452;2022-12-22T02:29:32;2.10;;;1.20;;
34571;SDS011;20808;48.974;8.452;2022-12-22T02:30:10;2.20;;;1.20;;
34571;SDS011;20808;48.974;8.452;2022-12-22T02:30:45;3.45;;;1.30;;
34571;SDS011;20808;48.974;8.452;2022-12-22T02:31:20;4.03;;;1.30;;
34571;SDS011;20808;48.974;8.452;2022-12-22T02:31:55;3.28;;;1.40;;
34571;SDS011;20808;48.974;8.452;2022-12-22T02:32:31;2.40;;;1.30;;
34571;SDS011;20808;48.974;8.452;2022-12-22T02:33:06;1.92;;;1.20;;
34571;SDS011;20808;48.974;8.452;2022-12-22T02:33:41;3.33;;;1.30;;
34571;SDS011;20808;48.974;8.452;2022-12-22T02:34:15;3.03;;;1.25;;
34571;SDS011;20808;48.974;8.452;2022-12-22T02:34:49;2.08;;;1.20;;
34571;SDS011;20808;48.974;8.452;2022-12-22T02:35:24;2.10;;;1.20;;
34571;SDS011;20808;48.974;8.452;2022-12-22T02:36:00;1.60;;;1.10;;
34571;SDS011;20808;48.974;8.452;2022-12-22T02:36:42;2.00;;;1.20;;
34571;SDS011;20808;48.974;8.452;2022-12-22T02:37:24;2.17;;;1.40;;
34571;SDS011;20808;48.974;8.452;2022-12-22T02:38:09;2.40;;;1.10;;
34571;SDS011;20808;48.974;8.452;2022-12-22T02:38:54;3.08;;;1.30;;
34571;SDS011;20808;48.974;8.452;2022-12-22T02:39:39;3.00;;;1.23;;
34571;SDS011;20808;48.974;8.452;2022-12-22T02:40:23;3.22;;;1.20;;
34571;SDS011;20808;48.974;8.452;2022-12-22T02:41:06;2.70;;;1.13;;
34571;SDS011;20808;48.974;8.452;2022-12-22T02:41:50;1.80;;;1.20;;
34571;SDS011;20808;48.974;8.452;2022-12-22T02:42:33;1.90;;;1.30;;
34571;SDS011;20808;48.974;8.452;2022-12-22T02:43:10;2.00;;;1.20;;
34571;SDS011;20808;48.974;8.452;2022-12-22T02:43:58;1.63;;;1.20;;
34571;SDS011;20808;48.974;8.452;2022-12-22T02:44:44;3.95;;;1.40;;
34571;SDS011;20808;48.974;8.452;2022-12-22T02:45:28;3.58;;;1.27;;
34571;SDS011;20808;48.974;8.452;2022-12-22T02:46:08;3.17;;;1.00;;
34571;SDS011;20808;48.974;8.452;2022-12-22T02:46:50;2.78;;;1.20;;
34571;SDS011;20808;48.974;8.452;2022-12-22T02:47:33;1.60;;;1.10;;
34571;SDS011;20808;48.974;8.452;2022-12-22T02:48:15;4.22;;;1.30;;
34571;SDS011;20808;48.974;8.452;2022-12-22T02:48:54;3.75;;;1.30;;
34571;SDS011;20808;48.974;8.452;2022-12-22T02:49:34;1.90;;;1.15;;
34571;SDS011;20808;48.974;8.452;2022-12-22T02:50:13;1.45;;;1.00;;
34571;SDS011;20808;48.974;8.452;2022-12-22T02:50:54;1.58;;;1.10;;
34571;SDS011;20808;48.974;8.452;2022-12-22T02:51:39;1.40;;;1.20;;
34571;SDS011;20808;48.974;8.452;2022-12-22T02:52:19;1.42;;;1.20;;
34571;SDS011;20808;48.974;8.452;2022-12-22T02:52:59;2.58;;;1.30;;
34571;SDS011;20808;48.974;8.452;2022-12-22T02:53:34;2.20;;;1.20;;
34571;SDS011;20808;48.974;8.452;2022-12-22T02:54:11;2.28;;;1.10;;
34571;SDS011;20808;48.974;8.452;2022-12-22T02:54:49;2.45;;;1.00;;
34571;SDS011;20808;48.974;8.452;2022-12-22T02:55:24;2.00;;;1.00;;
34571;SDS011;20808;48.974;8.452;2022-12-22T02:55:59;2.13;;;1.20;;
34571;SDS011;20808;48.974;8.452;2022-12-22T02:56:37;1.67;;;1.38;;
34571;SDS011;20808;48.974;8.452;2022-12-22T02:57:15;2.20;;;1.20;;
34571;SDS011;20808;48.974;8.452;2022-12-22T02:57:50;2.70;;;1.20;;
34571;SDS011;20808;48.974;8.452;2022-12-22T02:58:24;3.33;;;1.20;;
34571;SDS011;20808;48.974;8.452;2022-12-22T02:58:58;2.10;;;1.20;;
34571;SDS011;20808;48.974;8.452;2022-12-22T02:59:32;1.70;;;1.13;;
34571;SDS011;20808;48.974;8.452;2022-12-22T03:00:07;1.55;;;1.20;;
34571;SDS011;20808;48.974;8.452;2022-12-22T03:00:42;2.50;;;1.30;;
34571;SDS011;20808;48.974;8.452;2022-12-22T03:01:17;2.60;;;1.20;;
34571;SDS011;20808;48.974;8.452;2022-12-22T03:01:51;2.17;;;1.15;;
34571;SDS011;20808;48.974;8.452;2022-12-22T03:02:26;1.67;;;1.27;;
34571;SDS011;20808;48.974;8.452;2022-12-22T03:03:00;1.52;;;1.20;;
34571;SDS011;20808;48.974;8.452;2022-12-22T03:03:35;1.70;;;1.30;;
34571;SDS011;20808;48.974;8.452;2022-12-22T03:04:09;1.70;;;1.30;;
34571;SDS011;20808;48.974;8.452;2022-12-22T03:04:43;2.67;;;1.20;;
34571;SDS011;20808;48.974;8.452;2022-12-22T03:05:20;3.70;;;1.20;;
34571;SDS011;20808;48.974;8.452;2022-12-22T03:05:54;2.53;;;1.00;;
34571;SDS011;20808;48.974;8.452;2022-12-22T03:06:29;1.48;;;1.20;;
34571;SDS011;20808;48.974;8.452;2022-12-22T03:07:03;2.53;;;1.45;;
34571;SDS011;20808;48.974;8.452;2022-12-22T03:07:37;2.08;;;1.42;;
34571;SDS011;20808;48.974;8.452;2022-12-22T03:08:12;4.70;;;1.30;;
34571;SDS011;20808;48.974;8.452;2022-12-22T03:08:46;5.80;;;1.50;;
34571;SDS011;20808;48.974;8.452;2022-12-22T03:09:20;2.90;;;1.23;;
34571;SDS011;20808;48.974;8.452;2022-12-22T03:09:55;2.17;;;1.10;;
34571;SDS011;20808;48.974;8.452;2022-12-22T03:10:29;2.50;;;1.40;;
34571;SDS011;20808;48.974;8.452;2022-12-22T03:11:04;2.28;;;1.50;;
34571;SDS011;20808;48.974;8.452;2022-12-22T03:11:38;2.33;;;1.40;;
34571;SDS011;20808;48.974;8.452;2022-12-22T03:12:12;2.00;;;1.15;;
34571;SDS011;20808;48.974;8.452;2022-12-22T03:12:48;1.90;;;1.00;;
34571;SDS011;20808;48.974;8.452;2022-12-22T03:13:22;2.60;;;1.10;;
34571;SDS011;20808;48.974;8.452;2022-12-22T03:13:56;3.20;;;1.23;;
34571;SDS011;20808;48.974;8.452;2022-12-22T03:14:31;1.92;;;1.20;;
34571;SDS011;20808;48.974;8.452;2022-12-22T03:15:05;2.60;;;1.25;;
34571;SDS011;20808;48.974;8.452;2022-12-22T03:15:40;2.72;;;1.30;;
34571;SDS011;20808;48.974;8.452;2022-12-22T03:16:14;2.25;;;1.10;;
34571;SDS011;20808;48.974;8.452;2022-12-22T03:16:49;3.10;;;1.30;;
34571;SDS011;20808;48.974;8.452;2022-12-22T03:17:23;2.35;;;1.20;;
34571;SDS011;20808;48.974;8.452;2022-12-22T03:17:59;1.60;;;1.20;;
34571;SDS011;20808;48.974;8.452;2022-12-22T03:18:34;2.00;;;1.20;;
34571;SDS011;20808;48.974;8.452;2022-12-22T03:19:08;1.83;;;1.27;;
34571;SDS011;20808;48.974;8.452;2022-12-22T03:19:43;3.40;;;1.40;;
34571;SDS011;20808;48.974;8.452;2022-12-22T03:20:17;3.35;;;1.20;;
34571;SDS011;20808;48.974;8.452;2022-12-22T03:20:52;1.45;;;1.10;;
34571;SDS011;20808;48.974;8.452;2022-12-22T03:21:26;1.90;;;1.10;;
34571;SDS011;20808;48.974;8.452;2022-12-22T03:22:00;2.05;;;1.20;;
34571;SDS011;20808;48.974;8.452;2022-12-22T03:22:35;3.70;;;1.10;;
34571;SDS011;20808;48.974;8.452;2022-12-22T03:23:09;4.32;;;1.08;;
34571;SDS011;20808;48.974;8.452;2022-12-22T03:23:43;3.40;;;1.20;;
34571;SDS011;20808;48.974;8.452;2022-12-22T03:24:18;3.20;;;1.30;;
34571;SDS011;20808;48.974;8.452;2022-12-22T03:24:52;2.70;;;1.27;;
34571;SDS011;20808;48.974;8.452;2022-12-22T03:25:27;3.00;;;1.20;;
34571;SDS011;20808;48.974;8.452;2022-12-22T03:26:01;2.13;;;1.30;;
34571;SDS011;20808;48.974;8.452;2022-12-22T03:26:18;2.60;;;1.40;;
34571;SDS011;20808;48.974;8.452;2022-12-22T03:26:34;2.78;;;1.33;;
34571;SDS011;20808;48.974;8.452;2022-12-22T03:26:50;3.40;;;1.27;;
34571;SDS011;20808;48.974;8.452;2022-12-22T03:27:05;3.30;;;1.10;;
34571;SDS011;20808;48.974;8.452;2022-12-22T03:27:23;3.25;;;1.10;;
34571;SDS011;20808;48.974;8.452;2022-12-22T03:27:39;3.40;;;1.20;;
34571;SDS011;20808;48.974;8.452;2022-12-22T03:28:00;2.80;;;1.23;;
34571;SDS011;20808;48.974;8.452;2022-12-22T03:28:16;2.78;;;1.30;;
34571;SDS011;20808;48.974;8.452;2022-12-22T03:28:32;2.40;;;1.30;;
34571;SDS011;20808;48.974;8.452;2022-12-22T03:28:48;2.50;;;1.30;;
34571;SDS011;20808;48.974;8.452;2022-12-22T03:29:05;2.60;;;1.30;;
34571;SDS011;20808;48.974;8.452;2022-12-22T03:29:21;3.00;;;1.30;;
34571;SDS011;20808;48.974;8.452;2022-12-22T03:29:36;2.70;;;1.25;;
34571;SDS011;20808;48.974;8.452;2022-12-22T03:29:52;2.63;;;1.20;;
34571;SDS011;20808;48.974;8.452;2022-12-22T03:30:08;2.70;;;1.20;;
34571;SDS011;20808;48.974;8.452;2022-12-22T03:30:24;2.40;;;1.10;;
34571;SDS011;20808;48.974;8.452;2022-12-22T03:30:40;2.60;;;1.10;;
34571;SDS011;20808;48.974;8.452;2022-12-22T03:30:57;2.10;;;1.10;;
34571;SDS011;20808;48.974;8.452;2022-12-22T03:31:14;2.40;;;1.20;;
34571;SDS011;20808;48.974;8.452;2022-12-22T03:31:30;2.17;;;1.10;;
34571;SDS011;20808;48.974;8.452;2022-12-22T03:31:46;2.10;;;1.10;;
34571;SDS011;20808;48.974;8.452;2022-12-22T03:32:02;2.28;;;1.20;;
34571;SDS011;20808;48.974;8.452;2022-12-22T03:32:18;2.20;;;1.17;;
34571;SDS011;20808;48.974;8.452;2022-12-22T03:32:35;2.80;;;1.23;;
34571;SDS011;20808;48.974;8.452;2022-12-22T03:32:51;2.83;;;1.30;;
34571;SDS011;20808;48.974;8.452;2022-12-22T03:33:06;3.13;;;1.17;;